createdAt,value
2022-12-22T00:01:43.604Z,4.13
2022-12-22T00:06:28.973Z,4.63
2022-12-22T00:11:10.779Z,4.88
2022-12-22T00:15:53.824Z,4.93
2022-12-22T00:20:38.790Z,5.15
2022-12-22T00:25:19.584Z,4.43
2022-12-22T00:30:01.420Z,4.95
2022-12-22T00:34:42.143Z,5.30
2022-12-22T00:39:29.072Z,5.20
2022-12-22T00:44:09.836Z,4.97
2022-12-22T00:48:50.402Z,5.35
2022-12-22T00:53:31.163Z,4.80
2022-12-22T00:58:11.696Z,5.20
2022-12-22T01:02:52.202Z,4.95
2022-12-22T01:07:35.105Z,4.90
2022-12-22T01:12:15.790Z,5.18
2022-12-22T01:16:55.897Z,5.70
2022-12-22T01:21:37.884Z,5.80
2022-12-22T01:26:18.113Z,5.22
2022-12-22T01:30:59.230Z,5.97
2022-12-22T01:35:47.694Z,5.00
2022-12-22T01:40:36.106Z,4.45
2022-12-22T01:45:35.489Z,4.57
2022-12-22T01:50:16.420Z,4.03
2022-12-22T01:54:57.040Z,3.78
2022-12-22T01:59:37.962Z,4.57
2022-12-22T02:04:19.341Z,3.97
2022-12-22T02:09:10.960Z,3.83
2022-12-22T02:14:30.916Z,3.55
2022-12-22T02:19:27.161Z,3.75
2022-12-22T02:24:34.958Z,3.10
2022-12-22T02:29:15.834Z,2.92
2022-12-22T02:33:56.551Z,3.03
2022-12-22T02:38:58.185Z,2.97
2022-12-22T02:44:12.958Z,2.55
2022-12-22T02:49:04.098Z,2.40
2022-12-22T02:53:46.050Z,2.40
2022-12-22T02:58:26.854Z,2.30
2022-12-22T03:03:07.745Z,1.90
2022-12-22T03:07:47.958Z,2.55
2022-12-22T03:12:28.359Z,1.83
2022-12-22T03:17:08.840Z,2.03
2022-12-22T03:21:48.873Z,2.15
2022-12-22T03:26:10.383Z,2.20
2022-12-22T03:30:32.418Z,2.08
2022-12-22T03:34:54.344Z,1.90
2022-12-22T03:39:16.355Z,2.00
2022-12-22T03:43:57.071Z,1.90
2022-12-22T03:48:18.780Z,1.80
2022-12-22T03:52:40.390Z,2.10
2022-12-22T03:57:02.259Z,2.10
2022-12-22T04:01:24.443Z,2.10
2022-12-22T04:05:46.318Z,2.05
2022-12-22T04:10:27.737Z,1.85
2022-12-22T04:14:49.568Z,1.63
2022-12-22T04:19:11.418Z,2.00
2022-12-22T04:23:33.663Z,1.60
2022-12-22T04:27:55.980Z,1.98
2022-12-22T04:32:17.757Z,1.52
2022-12-22T04:36:39.699Z,2.30
2022-12-22T04:41:01.774Z,2.20
2022-12-22T04:45:23.686Z,2.05
2022-12-22T04:49:45.578Z,2.33
2022-12-22T04:54:07.534Z,1.90
2022-12-22T04:58:30.017Z,2.20
2022-12-22T05:02:53.561Z,2.17
2022-12-22T05:07:15.710Z,2.20
2022-12-22T05:11:38.377Z,2.00
2022-12-22T05:16:16.580Z,2.30
2022-12-22T05:20:38.149Z,2.28
2022-12-22T05:25:00.106Z,1.98
2022-12-22T05:29:22.237Z,2.03
2022-12-22T05:33:44.384Z,2.25
2022-12-22T05:38:06.120Z,2.15
2022-12-22T05:42:37.428Z,2.15
2022-12-22T05:46:59.314Z,2.00
2022-12-22T05:51:21.259Z,1.85
2022-12-22T05:55:43.249Z,2.00
2022-12-22T06:00:10.685Z,1.90
2022-12-22T06:04:35.199Z,1.88
2022-12-22T06:08:57.124Z,1.88
2022-12-22T06:13:18.802Z,2.20
2022-12-22T06:17:44.912Z,2.10
2022-12-22T06:22:07.228Z,2.00
2022-12-22T06:26:28.847Z,2.10
2022-12-22T06:30:51.120Z,1.85
2022-12-22T06:35:13.093Z,1.70
2022-12-22T06:39:34.846Z,1.88
2022-12-22T06:43:56.572Z,2.10
2022-12-22T06:48:18.936Z,2.10
2022-12-22T06:52:40.770Z,1.67
2022-12-22T06:57:02.599Z,1.70
2022-12-22T07:01:24.945Z,1.83
2022-12-22T07:05:46.801Z,2.03
2022-12-22T07:10:09.824Z,1.80
2022-12-22T07:14:31.742Z,1.50
2022-12-22T07:18:53.532Z,1.70
2022-12-22T07:23:15.418Z,1.45
2022-12-22T07:27:37.399Z,2.08
2022-12-22T07:31:59.214Z,1.50
2022-12-22T07:36:21.373Z,1.80
2022-12-22T07:40:44.354Z,1.50
2022-12-22T07:45:09.377Z,1.60
2022-12-22T07:49:50.024Z,1.58
2022-12-22T07:54:14.331Z,1.75
2022-12-22T07:58:36.271Z,1.98
2022-12-22T08:02:58.385Z,2.17
2022-12-22T08:07:20.200Z,1.80
2022-12-22T08:11:42.236Z,2.40
2022-12-22T08:16:11.189Z,1.65
2022-12-22T08:20:33.193Z,1.90
2022-12-22T08:24:55.229Z,1.85
2022-12-22T08:29:27.975Z,1.65
2022-12-22T08:33:49.888Z,1.80
2022-12-22T08:38:14.146Z,2.35
2022-12-22T08:42:35.911Z,1.38
2022-12-22T08:46:59.824Z,1.23
2022-12-22T08:51:21.720Z,1.52
2022-12-22T08:55:53.574Z,1.30
2022-12-22T09:00:15.973Z,1.63
2022-12-22T09:04:39.919Z,1.02
2022-12-22T09:09:04.432Z,1.70
2022-12-22T09:13:26.003Z,1.45
2022-12-22T09:17:48.402Z,1.67
2022-12-22T09:22:11.434Z,1.60
2022-12-22T09:26:33.545Z,1.30
2022-12-22T09:30:55.112Z,1.70
2022-12-22T09:35:17.134Z,1.45
2022-12-22T09:39:39.219Z,1.40
2022-12-22T09:44:20.817Z,1.23
2022-12-22T09:48:42.729Z,1.40
2022-12-22T09:53:07.233Z,1.30
2022-12-22T09:57:33.458Z,1.48
2022-12-22T10:02:33.887Z,1.10
2022-12-22T10:07:24.879Z,1.05
2022-12-22T10:11:59.925Z,1.00
2022-12-22T10:16:28.772Z,0.85
2022-12-22T10:21:13.489Z,1.30
2022-12-22T10:26:17.171Z,1.05
2022-12-22T10:30:29.730Z,1.05
2022-12-22T10:35:06.834Z,1.10
2022-12-22T10:39:33.106Z,0.93
2022-12-22T10:44:09.100Z,1.42
2022-12-22T10:48:49.121Z,0.98
2022-12-22T10:53:10.620Z,1.20
2022-12-22T10:57:33.024Z,1.00
2022-12-22T11:01:59.497Z,1.63
2022-12-22T11:06:21.579Z,35.50
2022-12-22T11:11:12.346Z,57.85
2022-12-22T11:15:45.187Z,43.95
2022-12-22T11:21:00.575Z,13.77
2022-12-22T11:25:43.860Z,58.75
2022-12-22T11:30:08.846Z,13.23
2022-12-22T11:34:49.855Z,5.57
2022-12-22T11:39:20.437Z,9.13
2022-12-22T11:44:26.567Z,9.55
2022-12-22T11:49:25.443Z,11.27
2022-12-22T11:53:56.401Z,8.38
2022-12-22T11:58:36.447Z,3.03
2022-12-22T12:03:19.893Z,4.90
2022-12-22T12:07:53.466Z,5.35
2022-12-22T12:12:33.531Z,1.90
2022-12-22T12:17:00.195Z,1.30
2022-12-22T12:21:29.864Z,1.27
2022-12-22T12:26:18.929Z,1.02
2022-12-22T12:30:55.837Z,1.40
2022-12-22T12:35:59.047Z,0.70
2022-12-22T12:40:58.245Z,1.27
2022-12-22T12:45:46.937Z,1.40
2022-12-22T12:50:34.767Z,1.30
2022-12-22T12:55:33.131Z,1.35
2022-12-22T12:59:59.861Z,1.55
2022-12-22T13:05:02.352Z,1.42
2022-12-22T13:14:57.147Z,1.35
2022-12-22T13:19:24.656Z,1.25
2022-12-22T13:24:23.681Z,1.48
2022-12-22T13:28:45.217Z,1.40
2022-12-22T13:33:12.623Z,1.30
2022-12-22T13:37:43.326Z,0.98
2022-12-22T13:42:07.280Z,1.02
2022-12-22T13:46:30.162Z,1.27
2022-12-22T13:51:04.387Z,1.13
2022-12-22T13:55:31.012Z,1.42
2022-12-22T13:59:54.919Z,1.95
2022-12-22T14:04:16.757Z,1.42
2022-12-22T14:08:38.840Z,1.25
2022-12-22T14:13:07.615Z,0.93
2022-12-22T14:17:37.438Z,1.27
2022-12-22T14:22:18.520Z,1.08
2022-12-22T14:26:40.703Z,1.33
2022-12-22T14:31:05.820Z,1.52
2022-12-22T14:35:31.702Z,1.23
2022-12-22T14:39:57.378Z,1.67
2022-12-22T14:44:24.159Z,1.80
2022-12-22T14:48:47.544Z,1.20
2022-12-22T14:53:14.261Z,1.55
2022-12-22T14:57:42.344Z,1.35
2022-12-22T15:02:35.146Z,1.23
2022-12-22T15:07:45.660Z,1.42
2022-12-22T15:12:12.670Z,1.05
2022-12-22T15:16:34.742Z,1.30
2022-12-22T15:20:57.697Z,1.83
2022-12-22T15:25:22.681Z,2.00
2022-12-22T15:29:44.581Z,1.80
2022-12-22T15:34:27.557Z,1.85
2022-12-22T15:38:51.176Z,1.83
2022-12-22T15:43:53.411Z,2.00
2022-12-22T15:47:56.522Z,2.15
2022-12-22T15:52:18.316Z,2.95
2022-12-22T15:56:40.824Z,3.33
2022-12-22T16:01:02.812Z,3.97
2022-12-22T16:05:24.673Z,3.95
2022-12-22T16:09:48.661Z,4.93
2022-12-22T16:14:15.613Z,5.63
2022-12-22T16:18:37.690Z,5.82
2022-12-22T16:22:59.781Z,5.28
2022-12-22T16:27:22.573Z,6.65
2022-12-22T16:31:44.203Z,7.00
2022-12-22T16:36:06.662Z,7.00
2022-12-22T16:40:29.020Z,7.80
2022-12-22T16:45:00.047Z,7.28
2022-12-22T16:49:26.599Z,7.30
2022-12-22T16:53:49.252Z,8.38
2022-12-22T16:58:13.854Z,7.50
2022-12-22T17:02:36.115Z,7.97
2022-12-22T17:07:01.003Z,8.18
2022-12-22T17:11:25.167Z,8.30
2022-12-22T17:15:46.925Z,7.82
2022-12-22T17:20:14.752Z,9.27
2022-12-22T17:24:36.351Z,7.95
2022-12-22T17:28:59.486Z,7.30
2022-12-22T17:33:21.722Z,6.97
2022-12-22T17:37:46.334Z,7.78
2022-12-22T17:42:23.582Z,7.90
2022-12-22T17:46:45.419Z,8.45
2022-12-22T17:51:20.892Z,7.93
2022-12-22T18:00:29.279Z,8.10
2022-12-22T18:04:51.658Z,8.05
2022-12-22T18:09:26.169Z,8.20
2022-12-22T18:13:48.601Z,8.88
2022-12-22T18:18:16.283Z,8.48
2022-12-22T18:22:38.249Z,8.70
2022-12-22T18:27:00.687Z,10.02
2022-12-22T18:31:24.188Z,9.00
2022-12-22T18:35:46.320Z,9.70
2022-12-22T18:40:39.367Z,10.45
2022-12-22T18:45:01.027Z,10.52
2022-12-22T18:49:23.004Z,8.82
2022-12-22T18:53:45.429Z,10.38
2022-12-22T18:58:14.947Z,9.75
2022-12-22T19:02:37.036Z,9.60
2022-12-22T19:06:58.784Z,11.65
2022-12-22T19:11:26.658Z,9.35
2022-12-22T19:15:50.269Z,9.43
2022-12-22T19:20:17.437Z,9.50
2022-12-22T19:24:41.495Z,10.40
2022-12-22T19:29:03.897Z,9.85
2022-12-22T19:33:45.996Z,10.05
2022-12-22T19:38:24.943Z,10.18
2022-12-22T19:42:50.440Z,9.82
2022-12-22T19:47:22.351Z,9.68
2022-12-22T19:51:44.952Z,7.93
2022-12-22T19:56:27.403Z,8.50
2022-12-22T20:00:49.842Z,8.73
2022-12-22T20:05:23.941Z,7.70
2022-12-22T20:09:45.981Z,7.68
2022-12-22T20:14:18.203Z,7.05
2022-12-22T20:18:40.201Z,7.97
2022-12-22T20:23:12.357Z,7.32
2022-12-22T20:27:35.474Z,8.02
2022-12-22T20:31:57.527Z,6.78
2022-12-22T20:36:27.437Z,5.88
2022-12-22T20:40:50.314Z,7.28
2022-12-22T20:45:12.544Z,7.15
2022-12-22T20:49:34.653Z,8.05
2022-12-22T20:53:57.655Z,7.40
2022-12-22T20:58:27.178Z,7.80
2022-12-22T21:02:49.373Z,7.65
2022-12-22T21:07:11.375Z,8.02
2022-12-22T21:11:34.565Z,8.20
2022-12-22T21:15:56.342Z,10.83
2022-12-22T21:20:25.802Z,10.68
2022-12-22T21:24:48.050Z,10.55
2022-12-22T21:29:27.004Z,7.93
2022-12-22T21:33:50.343Z,7.93
2022-12-22T21:38:18.803Z,7.93
2022-12-22T21:42:40.504Z,7.80
2022-12-22T21:47:03.114Z,7.53
2022-12-22T21:51:25.094Z,7.50
2022-12-22T21:55:47.090Z,7.25
2022-12-22T22:00:15.065Z,6.63
2022-12-22T22:04:36.723Z,6.30
2022-12-22T22:08:58.815Z,6.28
2022-12-22T22:13:20.501Z,5.85
2022-12-22T22:17:43.473Z,6.82
2022-12-22T22:22:05.415Z,6.47
2022-12-22T22:26:27.286Z,6.22
2022-12-22T22:30:49.180Z,6.43
2022-12-22T22:35:12.360Z,5.30
2022-12-22T22:39:34.002Z,5.50
2022-12-22T22:43:55.898Z,5.43
2022-12-22T22:48:21.825Z,4.55
2022-12-22T22:52:43.748Z,4.57
2022-12-22T22:57:05.858Z,4.18
2022-12-22T23:01:27.962Z,3.85
2022-12-22T23:05:50.153Z,3.78
2022-12-22T23:10:12.365Z,3.28
2022-12-22T23:14:34.391Z,4.55
2022-12-22T23:18:56.413Z,3.92
2022-12-22T23:23:19.290Z,4.18
2022-12-22T23:27:42.595Z,3.63
2022-12-22T23:32:05.320Z,3.75
2022-12-22T23:36:27.201Z,3.85
2022-12-22T23:40:52.812Z,3.70
2022-12-22T23:45:15.467Z,4.30
2022-12-22T23:49:37.425Z,3.75
2022-12-22T23:54:01.675Z,3.60
2022-12-22T23:58:23.907Z,3.40
